Time;durP1;ratioP1;P1;durP2;ratioP2;P2;SDS_P1;SDS_P2;PMS_P1;PMS_P2;Temp;Humidity;BMP_temperature;BMP_pressure;BME280_temperature;BME280_humidity;BME280_pressure;Samples;Min_cycle;Max_cycle;Signal;HPM_P1;HPM_P2
2023/06/05 00:02:22;;;;;;;4.63;2.97;;;;;;;16.47;47.05;96759.25;4994638;28;20100;-76
2023/06/05 00:04:50;;;;;;;5.57;2.97;;;;;;;16.41;47.25;96764.56;4994760;28;20059;-77
2023/06/05 00:07:18;;;;;;;3.60;3.30;;;;;;;16.31;47.39;96762.44;4994639;28;20396;-77
2023/06/05 00:09:45;;;;;;;4.38;3.03;;;;;;;16.25;47.46;96766.72;4994150;28;20050;-77
2023/06/05 00:12:13;;;;;;;5.72;3.10;;;;;;;16.17;47.91;96758.28;4993914;28;20050;-77
2023/06/05 00:14:40;;;;;;;4.03;3.30;;;;;;;16.09;47.74;96761.16;4993700;28;20533;-77
2023/06/05 00:17:09;;;;;;;4.25;3.45;;;;;;;16.02;48.08;96767.25;4993550;28;20050;-77
2023/06/05 00:19:38;;;;;;;3.13;2.80;;;;;;;15.97;48.07;96764.47;4993633;28;20054;-77
2023/06/05 00:22:05;;;;;;;4.57;3.55;;;;;;;15.92;48.10;96763.47;4993927;28;20124;-77
2023/06/05 00:24:33;;;;;;;4.25;3.53;;;;;;;15.83;48.30;96761.13;4993821;28;20137;-77
2023/06/05 00:27:00;;;;;;;5.80;3.60;;;;;;;15.78;48.45;96765.38;4993458;28;20042;-77
2023/06/05 00:29:28;;;;;;;4.40;3.10;;;;;;;15.73;48.74;96763.38;4993539;28;20112;-77
2023/06/05 00:31:55;;;;;;;4.25;3.33;;;;;;;15.69;48.77;96764.78;4993362;28;20046;-77
2023/06/05 00:34:23;;;;;;;4.78;3.35;;;;;;;15.64;48.83;96770.69;4993652;28;20105;-76
2023/06/05 00:36:53;;;;;;;7.15;3.20;;;;;;;15.60;49.08;96760.78;4993332;28;20101;-77
2023/06/05 00:39:21;;;;;;;3.65;2.65;;;;;;;15.60;49.42;96758.97;4993500;28;20069;-77
2023/06/05 00:41:48;;;;;;;6.60;4.55;;;;;;;15.57;49.34;96769.91;4993192;28;20098;-77
2023/06/05 00:44:18;;;;;;;3.45;3.00;;;;;;;15.49;49.69;96762.25;4993178;28;20050;-77
2023/06/05 00:46:48;;;;;;;5.13;3.20;;;;;;;15.44;49.71;96764.72;4993077;28;20054;-77
2023/06/05 00:49:16;;;;;;;5.07;3.25;;;;;;;15.42;49.73;96764.09;4993411;28;20138;-77
2023/06/05 00:51:46;;;;;;;4.93;3.55;;;;;;;15.42;49.98;96761.47;4993218;28;20046;-77
2023/06/05 00:54:15;;;;;;;3.42;3.10;;;;;;;15.40;50.05;96763.50;4993119;28;20101;-77
2023/06/05 00:56:44;;;;;;;4.28;3.55;;;;;;;15.40;50.40;96763.50;4992743;28;20046;-77
2023/06/05 00:59:13;;;;;;;4.18;3.30;;;;;;;15.40;50.07;96764.31;4992962;28;20104;-76
2023/06/05 01:01:42;;;;;;;5.93;4.80;;;;;;;15.38;50.01;96761.06;4992995;28;20050;-76
2023/06/05 01:04:10;;;;;;;7.20;3.50;;;;;;;15.37;50.17;96756.84;4993299;28;20470;-77
2023/06/05 01:06:40;;;;;;;4.65;3.10;;;;;;;15.38;50.10;96760.28;4992931;28;20081;-77
2023/06/05 01:09:10;;;;;;;4.93;3.67;;;;;;;15.33;50.06;96758.28;4993227;28;20096;-77
2023/06/05 01:11:43;;;;;;;4.97;3.33;;;;;;;15.30;50.34;96753.41;4992991;28;20134;-77
2023/06/05 01:14:17;;;;;;;3.65;2.80;;;;;;;15.25;50.26;96756.66;5015138;28;20054;-78
2023/06/05 01:16:48;;;;;;;4.45;3.60;;;;;;;15.19;50.60;96752.22;4998410;28;20046;-76
2023/06/05 01:19:16;;;;;;;6.60;3.47;;;;;;;15.07;50.74;96753.91;4994785;28;20050;-78
2023/06/05 01:21:44;;;;;;;4.95;3.92;;;;;;;14.98;51.12;96753.31;4994059;28;20100;-76
2023/06/05 01:24:15;;;;;;;7.22;3.67;;;;;;;14.91;51.50;96752.53;4994132;28;20054;-77
2023/06/05 01:26:52;;;;;;;6.28;3.88;;;;;;;14.82;51.58;96751.94;4994540;28;20078;-78
2023/06/05 01:29:24;;;;;;;7.05;3.65;;;;;;;14.80;51.61;96747.88;4994580;28;20050;-78
2023/06/05 01:31:54;;;;;;;9.13;3.28;;;;;;;14.75;51.34;96751.13;4994340;28;20565;-78
2023/06/05 01:34:24;;;;;;;9.85;3.85;;;;;;;14.68;51.23;96749.53;4994190;28;20054;-78
2023/06/05 01:36:53;;;;;;;4.28;3.28;;;;;;;14.60;51.20;96750.53;4994249;28;20043;-78
2023/06/05 01:39:23;;;;;;;4.55;3.50;;;;;;;14.53;51.63;96752.34;4993532;28;20496;-79
2023/06/05 01:41:52;;;;;;;5.65;3.33;;;;;;;14.48;51.50;96746.91;4992602;28;20104;-77
2023/06/05 01:44:20;;;;;;;4.50;3.33;;;;;;;14.48;51.88;96749.53;4994529;28;20137;-76
2023/06/05 01:46:49;;;;;;;4.40;3.17;;;;;;;14.43;51.85;96740.44;4996309;28;20042;-75
2023/06/05 01:49:16;;;;;;;5.25;3.80;;;;;;;14.39;52.24;96752.34;4996927;28;20046;-77
2023/06/05 01:51:44;;;;;;;5.22;3.22;;;;;;;14.37;52.39;96749.09;4996761;28;20058;-77
2023/06/05 01:54:12;;;;;;;4.40;3.33;;;;;;;14.37;52.34;96743.88;4996680;28;20051;-77
2023/06/05 01:56:42;;;;;;;4.03;3.35;;;;;;;14.37;52.75;96745.69;4996386;28;20047;-76
2023/06/05 01:59:10;;;;;;;4.60;3.35;;;;;;;14.34;52.28;96740.81;4996440;28;20054;-76
2023/06/05 02:01:37;;;;;;;5.63;3.17;;;;;;;14.28;52.52;96747.69;4996301;28;20054;-76
2023/06/05 02:04:05;;;;;;;4.30;3.17;;;;;;;14.26;52.39;96746.28;4996529;28;20051;-77
2023/06/05 02:06:41;;;;;;;4.25;3.40;;;;;;;14.20;52.36;96753.13;4996466;28;20422;-76
2023/06/05 02:09:10;;;;;;;5.47;3.45;;;;;;;14.15;52.87;96745.06;4996537;28;20453;-76
2023/06/05 02:11:38;;;;;;;5.35;3.53;;;;;;;14.09;52.93;96745.88;4996599;28;20042;-76
2023/06/05 02:14:07;;;;;;;6.25;3.95;;;;;;;14.07;52.97;96740.00;4996439;28;20061;-76
2023/06/05 02:16:36;;;;;;;5.88;3.65;;;;;;;14.04;52.82;96737.78;4996775;28;20054;-76
2023/06/05 02:19:04;;;;;;;5.78;3.42;;;;;;;13.99;53.01;96744.44;5013989;28;20046;-76
2023/06/05 02:21:33;;;;;;;4.10;3.05;;;;;;;13.95;53.08;96740.59;5015895;28;20054;-76
2023/06/05 02:24:00;;;;;;;4.82;3.20;;;;;;;13.91;53.31;96739.38;5016250;28;20050;-76
2023/06/05 02:26:29;;;;;;;5.47;3.42;;;;;;;13.87;53.53;96743.41;5014262;28;20085;-76
2023/06/05 02:28:57;;;;;;;4.43;3.13;;;;;;;13.83;53.49;96744.00;5016121;28;20054;-76
2023/06/05 02:31:28;;;;;;;6.32;3.38;;;;;;;13.77;53.72;96740.34;5016328;28;20513;-76
2023/06/05 02:33:57;;;;;;;3.50;3.17;;;;;;;13.75;53.73;96734.50;5000033;28;20054;-76
2023/06/05 02:36:24;;;;;;;3.92;3.40;;;;;;;13.75;53.62;96735.31;4996753;28;20050;-76
2023/06/05 02:38:52;;;;;;;6.28;4.15;;;;;;;13.72;53.76;96734.91;4996213;28;20058;-75
2023/06/05 02:41:21;;;;;;;5.47;4.00;;;;;;;13.71;53.65;96733.28;4996312;28;20046;-75
2023/06/05 02:43:49;;;;;;;4.72;3.60;;;;;;;13.72;53.55;96734.91;4996208;28;20499;-75
2023/06/05 02:46:16;;;;;;;5.38;3.35;;;;;;;13.69;53.76;96745.78;4996333;28;20108;-76
2023/06/05 02:48:45;;;;;;;7.50;3.85;;;;;;;13.68;53.95;96741.53;4996041;28;20046;-76
2023/06/05 02:51:13;;;;;;;5.20;4.00;;;;;;;13.64;53.72;96745.56;4995812;28;20046;-76
2023/06/05 02:53:41;;;;;;;7.05;4.18;;;;;;;13.59;53.85;96741.72;4995704;28;20089;-76
2023/06/05 02:56:08;;;;;;;7.28;3.97;;;;;;;13.58;54.04;96744.56;4995971;28;20569;-76
2023/06/05 02:58:37;;;;;;;4.82;4.10;;;;;;;13.55;54.06;96745.72;5010442;28;20069;-76
2023/06/05 03:01:08;;;;;;;6.85;4.00;;;;;;;13.53;54.09;96733.84;5016724;28;20073;-76
2023/06/05 03:03:36;;;;;;;6.40;4.25;;;;;;;13.50;54.09;96740.28;5018317;28;20073;-76
2023/06/05 03:06:06;;;;;;;7.88;4.25;;;;;;;13.45;54.34;96741.88;5005528;28;20050;-76
2023/06/05 03:08:35;;;;;;;6.00;4.40;;;;;;;13.42;54.40;96745.69;5000781;28;20552;-76
2023/06/05 03:11:03;;;;;;;7.10;4.72;;;;;;;13.39;54.27;96748.72;4997141;28;20046;-76
2023/06/05 03:13:32;;;;;;;8.07;4.63;;;;;;;13.34;54.45;96743.25;4996102;28;20050;-76
2023/06/05 03:16:01;;;;;;;8.07;4.30;;;;;;;13.31;54.38;96748.88;4996468;28;20561;-75
2023/06/05 03:18:29;;;;;;;5.85;4.30;;;;;;;13.27;54.64;96743.19;4996066;28;20517;-76
2023/06/05 03:20:57;;;;;;;6.00;4.30;;;;;;;13.25;54.66;96744.38;4995243;28;20060;-76
2023/06/05 03:23:28;;;;;;;8.57;3.88;;;;;;;13.27;54.97;96750.22;4995813;28;20046;-75
2023/06/05 03:25:56;;;;;;;9.13;4.10;;;;;;;13.25;54.66;96745.19;4995485;28;20046;-76
2023/06/05 03:28:25;;;;;;;7.32;4.63;;;;;;;13.21;54.88;96743.97;4996033;28;20422;-76
2023/06/05 03:30:52;;;;;;;5.10;3.95;;;;;;;13.19;55.02;96746.78;4995274;28;20578;-77
2023/06/05 03:33:20;;;;;;;6.65;4.55;;;;;;;13.15;55.20;96742.13;4995141;28;20050;-76
2023/06/05 03:35:48;;;;;;;7.55;5.13;;;;;;;13.09;55.18;96746.31;4995165;28;20473;-76
2023/06/05 03:38:16;;;;;;;6.05;4.20;;;;;;;13.06;55.20;96740.69;4995186;28;20086;-78
2023/06/05 03:40:46;;;;;;;5.60;4.10;;;;;;;13.04;55.17;96748.72;4995204;28;20050;-76
2023/06/05 03:43:13;;;;;;;7.85;5.03;;;;;;;13.03;55.26;96747.13;4994934;28;20054;-76
2023/06/05 03:45:41;;;;;;;6.90;4.53;;;;;;;13.01;55.22;96743.88;4994765;28;20069;-76
2023/06/05 03:54:08;;;;;;;6.25;4.47;;;;;;;12.94;55.74;96733.38;4999994;28;20035;-90
2023/06/05 03:57:24;;;;;;;6.53;4.05;;;;;;;12.89;55.94;96735.75;4999936;28;20042;-90
2023/06/05 04:00:27;;;;;;;5.85;4.53;;;;;;;12.90;56.09;96731.31;5000213;28;20039;-90
2023/06/05 04:03:28;;;;;;;7.85;4.15;;;;;;;12.85;56.13;96729.25;4999888;28;20043;-91
2023/06/05 04:57:41;;;;;;;11.95;6.40;;;;;;;14.42;54.04;96745.88;5030092;28;20050;-88
2023/06/05 05:00:22;;;;;;;9.20;5.50;;;;;;;14.40;54.19;96747.91;5019225;28;20038;-89
2023/06/05 05:08:21;;;;;;;6.43;4.25;;;;;;;14.34;53.87;96746.06;5110719;23;20054;-89
2023/06/05 05:10:49;;;;;;;11.18;4.88;;;;;;;14.32;53.72;96741.03;4998826;28;20454;-89
2023/06/05 05:13:19;;;;;;;7.60;3.58;;;;;;;14.36;54.34;96747.47;4999754;28;20137;-85
2023/06/05 05:15:52;;;;;;;5.80;3.88;;;;;;;14.47;54.13;96745.25;4999189;28;20051;-90
2023/06/05 05:18:20;;;;;;;4.47;4.07;;;;;;;14.63;53.45;96750.16;5015482;28;20065;-91
2023/06/05 05:20:48;;;;;;;6.28;3.90;;;;;;;14.76;52.35;96758.00;5015205;28;20057;-89
2023/06/05 05:23:17;;;;;;;7.10;4.15;;;;;;;14.81;52.29;96750.31;5016642;28;20341;-90
2023/06/05 05:25:45;;;;;;;8.15;4.75;;;;;;;14.82;51.82;96745.84;5016760;28;20042;-89
2023/06/05 05:28:13;;;;;;;7.80;4.82;;;;;;;14.76;51.97;96752.75;5016477;28;20069;-89
2023/06/05 05:30:42;;;;;;;11.65;4.82;;;;;;;14.79;52.21;96754.97;5016582;28;20054;-88
2023/06/05 05:33:10;;;;;;;14.88;5.32;;;;;;;14.84;51.96;96755.16;5016490;28;20038;-90
2023/06/05 05:35:38;;;;;;;5.53;4.25;;;;;;;14.85;51.87;96758.59;5016597;28;20053;-90
2023/06/05 05:38:06;;;;;;;8.73;4.93;;;;;;;14.89;52.01;96761.59;5017885;28;20092;-89
2023/06/05 05:40:34;;;;;;;7.00;5.20;;;;;;;14.98;51.62;96755.94;5018165;28;20030;-88
2023/06/05 05:43:02;;;;;;;9.88;5.25;;;;;;;15.07;51.75;96764.41;5017970;28;20031;-89
2023/06/05 05:45:30;;;;;;;6.97;4.35;;;;;;;15.13;51.75;96762.75;5017775;28;20070;-88
2023/06/05 05:47:59;;;;;;;10.60;4.57;;;;;;;15.19;51.94;96767.19;5017802;28;20118;-89
2023/06/05 05:50:27;;;;;;;6.70;4.57;;;;;;;15.25;51.77;96769.81;5017850;28;20034;-89
2023/06/05 05:52:55;;;;;;;6.43;4.40;;;;;;;15.32;51.72;96771.63;5017930;28;20050;-91
2023/06/05 05:55:23;;;;;;;7.55;4.38;;;;;;;15.39;51.84;96772.38;5017581;28;20035;-88
2023/06/05 05:57:51;;;;;;;12.27;4.68;;;;;;;15.44;51.74;96776.03;5017702;28;20050;-89
2023/06/05 06:00:20;;;;;;;8.27;4.68;;;;;;;15.48;51.61;96776.44;5017980;28;20056;-89
2023/06/05 06:02:48;;;;;;;46.13;36.13;;;;;;;15.52;51.76;96774.97;5017795;28;20034;-90
2023/06/05 06:05:18;;;;;;;27.02;20.60;;;;;;;15.55;52.16;96774.56;5017646;28;20038;-88
2023/06/05 06:07:46;;;;;;;16.65;11.05;;;;;;;15.62;51.66;96772.72;5017596;28;20034;-89
2023/06/05 06:10:14;;;;;;;10.13;6.35;;;;;;;15.74;50.79;96769.44;5017951;28;20095;-89
2023/06/05 06:12:42;;;;;;;8.98;4.57;;;;;;;15.80;51.11;96772.03;5017732;28;20034;-89
2023/06/05 06:15:11;;;;;;;6.03;3.60;;;;;;;15.90;50.52;96768.97;5017703;28;20030;-88
2023/06/05 06:17:39;;;;;;;4.88;3.42;;;;;;;15.97;50.44;96769.72;5017606;28;20039;-89
2023/06/05 06:20:12;;;;;;;5.43;3.80;;;;;;;16.05;50.60;96761.59;5017514;28;20065;-88
2023/06/05 06:22:42;;;;;;;4.97;3.28;;;;;;;16.14;50.58;96764.78;5017512;28;20252;-86
2023/06/05 06:25:14;;;;;;;8.82;3.15;;;;;;;16.25;50.64;96773.81;5017318;28;20050;-89
2023/06/05 06:27:43;;;;;;;4.93;3.15;;;;;;;16.35;50.63;96770.69;5017371;28;20061;-89
2023/06/05 06:30:11;;;;;;;6.30;3.33;;;;;;;16.44;50.43;96770.22;5018815;28;20047;-90
2023/06/05 06:32:39;;;;;;;6.65;3.28;;;;;;;16.56;50.10;96766.91;5021143;28;20038;-87
2023/06/05 06:35:08;;;;;;;4.95;2.92;;;;;;;16.64;50.09;96769.25;5020928;28;20259;-90
2023/06/05 06:37:36;;;;;;;3.97;2.78;;;;;;;16.72;50.05;96761.06;5021021;28;20030;-90
2023/06/05 06:40:09;;;;;;;6.75;3.40;;;;;;;16.85;49.87;96770.72;5021088;28;20043;-89
2023/06/05 06:42:36;;;;;;;4.82;2.92;;;;;;;16.96;49.88;96764.72;5021320;28;20042;-89
2023/06/05 06:45:05;;;;;;;3.65;2.88;;;;;;;17.05;48.88;96768.69;5020294;28;20070;-90
2023/06/05 06:47:33;;;;;;;4.40;3.35;;;;;;;17.19;48.81;96766.72;5019946;28;20034;-88
2023/06/05 06:50:01;;;;;;;6.53;3.25;;;;;;;17.32;48.75;96768.41;5019485;28;20073;-90
2023/06/05 06:52:29;;;;;;;5.30;3.28;;;;;;;17.45;48.56;96773.53;5020307;28;20037;-89
2023/06/05 06:54:57;;;;;;;4.90;2.92;;;;;;;17.59;48.38;96765.47;5019887;28;20074;-90
2023/06/05 06:57:26;;;;;;;4.82;2.55;;;;;;;17.73;47.78;96774.00;5019500;28;20042;-90
2023/06/05 06:59:54;;;;;;;3.47;2.53;;;;;;;17.85;47.37;96777.53;5019338;28;20058;-91
2023/06/05 07:02:25;;;;;;;4.47;3.13;;;;;;;18.00;47.52;96770.03;5018353;28;20058;-90
2023/06/05 07:04:57;;;;;;;4.15;2.75;;;;;;;18.14;46.95;96767.97;5019658;28;20044;-88
2023/06/05 07:07:25;;;;;;;3.55;2.80;;;;;;;18.24;46.27;96773.53;5020202;28;20038;-91
2023/06/05 07:09:53;;;;;;;4.43;2.60;;;;;;;18.35;46.58;96773.78;5017799;28;20053;-88
2023/06/05 07:12:22;;;;;;;3.10;2.40;;;;;;;18.46;46.25;96773.81;5017172;28;20042;-89
2023/06/05 07:14:54;;;;;;;4.55;2.80;;;;;;;18.59;46.04;96769.34;5017536;28;20077;-89
2023/06/05 07:17:22;;;;;;;3.53;2.67;;;;;;;18.71;45.72;96767.50;5016919;28;20102;-89
2023/06/05 07:19:50;;;;;;;5.20;2.53;;;;;;;18.81;45.58;96761.69;5016154;28;20042;-89
2023/06/05 07:22:18;;;;;;;4.57;2.95;;;;;;;18.91;45.17;96762.72;5014023;28;20099;-88
2023/06/05 07:24:46;;;;;;;5.43;2.63;;;;;;;19.04;45.07;96766.16;5013614;28;20054;-89
2023/06/05 07:27:14;;;;;;;4.60;2.78;;;;;;;19.17;45.24;96765.91;5012234;28;20502;-88
2023/06/05 07:29:42;;;;;;;7.10;2.92;;;;;;;19.31;45.02;96758.53;5010715;28;20108;-89
2023/06/05 07:32:12;;;;;;;3.17;2.65;;;;;;;19.42;44.71;96763.00;5009687;28;20046;-90
2023/06/05 07:34:40;;;;;;;3.03;2.65;;;;;;;19.58;44.72;96760.66;5009337;28;20088;-89
2023/06/05 07:37:08;;;;;;;4.78;2.45;;;;;;;19.71;44.47;96755.91;5009738;28;20050;-91
2023/06/05 07:39:36;;;;;;;4.53;2.72;;;;;;;19.86;44.03;96751.94;5009595;28;20057;-87
2023/06/05 07:42:05;;;;;;;5.28;3.28;;;;;;;19.99;43.98;96764.91;5007569;28;20046;-91
2023/06/05 07:44:33;;;;;;;4.75;2.90;;;;;;;20.11;44.18;96760.31;5008150;28;20058;-87
2023/06/05 07:47:01;;;;;;;6.88;3.10;;;;;;;20.24;43.85;96758.44;5009048;28;20046;-87
2023/06/05 07:49:32;;;;;;;4.32;3.00;;;;;;;20.35;43.50;96747.75;5007847;28;20050;-90
2023/06/05 07:52:01;;;;;;;4.53;3.08;;;;;;;20.46;43.00;96746.06;5007469;28;20426;-90
2023/06/05 07:54:28;;;;;;;4.88;3.38;;;;;;;20.58;42.42;96748.69;5007595;28;20062;-87
2023/06/05 07:56:58;;;;;;;4.57;2.90;;;;;;;20.69;42.29;96744.34;5007720;28;20392;-87
2023/06/05 07:59:27;;;;;;;4.32;2.85;;;;;;;20.80;42.39;96740.78;5016946;28;20092;-89
2023/06/05 08:01:56;;;;;;;6.97;3.58;;;;;;;20.92;42.33;96732.72;5007811;28;20043;-88
2023/06/05 08:04:27;;;;;;;3.70;3.05;;;;;;;21.04;42.16;96743.25;5008837;28;20114;-89
2023/06/05 08:06:57;;;;;;;3.30;3.00;;;;;;;21.15;41.71;96743.13;5009518;28;20058;-90
2023/06/05 08:09:25;;;;;;;5.07;3.45;;;;;;;21.27;41.82;96732.38;5015977;28;20050;-89
2023/06/05 08:11:53;;;;;;;5.30;3.47;;;;;;;21.40;41.18;96737.31;5010397;28;20056;-91
2023/06/05 08:14:21;;;;;;;3.65;3.13;;;;;;;21.51;40.71;96734.81;5009388;28;20060;-90
2023/06/05 08:16:49;;;;;;;5.78;3.00;;;;;;;21.61;40.49;96737.59;5007884;28;20070;-90
2023/06/05 08:19:17;;;;;;;5.68;3.42;;;;;;;21.69;40.72;96725.72;5008672;28;20105;-90
2023/06/05 08:21:45;;;;;;;3.30;2.92;;;;;;;21.80;40.44;96740.72;5008816;28;20050;-87
2023/06/05 08:24:15;;;;;;;7.20;3.40;;;;;;;21.90;40.40;96745.31;5008667;28;20070;-91
2023/06/05 08:26:43;;;;;;;3.95;2.60;;;;;;;21.99;39.88;96741.16;5008068;28;20050;-90
2023/06/05 08:29:12;;;;;;;3.55;3.00;;;;;;;22.09;39.49;96741.25;5007157;28;20050;-87
2023/06/05 08:31:39;;;;;;;5.20;3.33;;;;;;;22.18;40.32;96733.63;5007238;28;20498;-89
2023/06/05 08:34:07;;;;;;;3.40;2.92;;;;;;;22.27;39.98;96736.66;5007692;28;20050;-88
2023/06/05 08:36:35;;;;;;;6.82;3.90;;;;;;;22.38;39.63;96733.03;5006199;28;20047;-87
2023/06/05 08:39:04;;;;;;;4.85;3.00;;;;;;;22.46;39.51;96729.91;5005127;28;20073;-90
2023/06/05 08:41:35;;;;;;;7.50;3.15;;;;;;;22.56;39.22;96737.94;5003994;28;20085;-87
2023/06/05 08:44:03;;;;;;;6.13;4.03;;;;;;;22.65;38.96;96734.81;5004224;28;20133;-90
2023/06/05 08:46:31;;;;;;;6.57;3.05;;;;;;;22.75;39.27;96730.38;5003157;28;20066;-87
2023/06/05 08:49:08;;;;;;;5.40;3.13;;;;;;;22.84;38.83;96730.69;5004057;28;20118;-89
2023/06/05 08:51:37;;;;;;;5.95;3.60;;;;;;;22.91;38.60;96731.25;5004007;28;20046;-87
2023/06/05 08:54:09;;;;;;;3.33;3.03;;;;;;;22.96;37.90;96736.63;5002964;28;20147;-91
2023/06/05 08:56:40;;;;;;;3.50;3.20;;;;;;;22.97;37.54;96740.09;5002530;28;20050;-89
2023/06/05 08:59:08;;;;;;;3.50;2.95;;;;;;;22.99;37.21;96738.75;5002379;28;20056;-88
2023/06/05 09:01:37;;;;;;;4.85;3.20;;;;;;;23.02;37.48;96732.97;5004100;28;20069;-89
2023/06/05 09:04:05;;;;;;;4.10;3.40;;;;;;;23.09;37.50;96739.91;5005496;28;20133;-88
2023/06/05 09:06:33;;;;;;;4.72;3.40;;;;;;;23.11;37.60;96735.13;5006764;28;20124;-87
2023/06/05 09:09:02;;;;;;;3.50;2.63;;;;;;;23.15;37.69;96736.22;5006105;28;20560;-89
2023/06/05 09:11:31;;;;;;;2.92;2.60;;;;;;;23.22;37.23;96732.28;5006920;28;20490;-89
2023/06/05 09:14:02;;;;;;;4.05;2.80;;;;;;;23.30;36.74;96736.28;5005479;28;20050;-91
2023/06/05 09:16:37;;;;;;;3.08;2.78;;;;;;;23.34;36.51;96729.38;5004061;28;20046;-89
2023/06/05 09:19:07;;;;;;;3.53;2.95;;;;;;;23.38;36.58;96733.13;5004554;28;20060;-90
2023/06/05 09:21:37;;;;;;;5.38;2.95;;;;;;;23.43;36.50;96733.13;5004113;28;20055;-90
2023/06/05 09:24:16;;;;;;;4.25;3.05;;;;;;;23.51;36.41;96720.41;5005363;28;20056;-86
2023/06/05 09:26:52;;;;;;;5.15;2.92;;;;;;;23.58;37.00;96728.94;5002099;28;20058;-89
2023/06/05 09:29:26;;;;;;;3.88;3.33;;;;;;;23.61;36.42;96728.41;5002411;28;20058;-91
2023/06/05 09:31:56;;;;;;;4.30;3.53;;;;;;;23.58;36.68;96728.94;5001864;28;20129;-89
2023/06/05 09:34:26;;;;;;;6.57;3.15;;;;;;;23.56;36.17;96729.19;5010458;28;20050;-89
2023/06/05 09:36:55;;;;;;;4.85;3.60;;;;;;;23.64;35.76;96733.22;5010370;28;20137;-89
2023/06/05 09:39:24;;;;;;;5.57;3.58;;;;;;;23.74;35.61;96716.47;5007880;28;20046;-90
2023/06/05 09:41:53;;;;;;;3.65;3.00;;;;;;;23.81;35.03;96728.50;5008501;28;20057;-88
2023/06/05 09:44:22;;;;;;;5.30;3.17;;;;;;;23.83;34.87;96720.22;5009303;28;20046;-90
2023/06/05 09:46:53;;;;;;;6.03;3.67;;;;;;;23.88;35.36;96724.75;5004698;28;20054;-92
2023/06/05 09:49:26;;;;;;;5.07;3.58;;;;;;;23.95;35.77;96722.66;5002341;28;20097;-90
2023/06/05 09:51:55;;;;;;;4.55;3.40;;;;;;;24.04;34.59;96734.41;4996924;23;20055;-76
2023/06/05 09:54:25;;;;;;;5.53;3.63;;;;;;;24.05;34.47;96725.31;4973005;28;20294;-77
2023/06/05 09:56:58;;;;;;;3.83;3.42;;;;;;;23.98;34.19;96722.13;4973159;28;20047;-76
2023/06/05 09:59:29;;;;;;;4.88;3.10;;;;;;;23.90;34.18;96725.31;4973200;28;20063;-76
2023/06/05 10:02:01;;;;;;;10.33;3.23;;;;;;;23.84;33.49;96719.97;4972966;28;20470;-75
2023/06/05 10:04:30;;;;;;;4.25;3.20;;;;;;;23.89;34.11;96724.50;4973501;28;20292;-77
2023/06/05 10:07:01;;;;;;;3.88;3.28;;;;;;;23.97;34.33;96717.88;4977132;28;20442;-76
2023/06/05 10:09:31;;;;;;;5.68;3.55;;;;;;;24.08;33.84;96721.34;4977191;28;20059;-77
2023/06/05 10:11:59;;;;;;;5.13;3.30;;;;;;;24.16;33.64;96715.47;4976689;28;20490;-75
2023/06/05 10:14:27;;;;;;;5.45;3.33;;;;;;;24.21;33.51;96708.28;4976573;28;20500;-75
2023/06/05 10:16:56;;;;;;;4.72;3.00;;;;;;;24.25;33.61;96708.56;4977243;28;20051;-77
2023/06/05 10:19:25;;;;;;;8.02;3.47;;;;;;;24.27;33.53;96706.44;4977095;28;20129;-75
2023/06/05 10:21:53;;;;;;;5.78;3.17;;;;;;;24.29;33.47;96700.81;4976753;28;20117;-75
2023/06/05 10:24:24;;;;;;;4.55;3.25;;;;;;;24.35;33.21;96710.41;4976720;28;20078;-75
2023/06/05 10:27:14;;;;;;;4.10;3.28;;;;;;;24.44;32.60;96709.59;4976166;28;20077;-74
2023/06/05 10:30:08;;;;;;;4.03;3.00;;;;;;;24.48;32.17;96712.56;4976415;28;20051;-75
2023/06/05 10:32:42;;;;;;;3.85;3.00;;;;;;;24.46;32.13;96701.34;4976393;28;20058;-75
2023/06/05 10:35:25;;;;;;;3.20;2.90;;;;;;;24.43;31.71;96702.69;4976269;28;20061;-75
2023/06/05 10:38:09;;;;;;;6.43;3.25;;;;;;;24.42;32.16;96701.09;4976197;28;20109;-74
2023/06/05 10:40:37;;;;;;;6.18;3.33;;;;;;;24.47;32.52;96697.63;4976235;28;20050;-77
2023/06/05 10:43:24;;;;;;;4.53;3.13;;;;;;;24.56;31.42;96701.38;4976148;28;20106;-75
2023/06/05 10:45:52;;;;;;;3.63;3.33;;;;;;;24.62;31.35;96700.31;4975786;28;20146;-74
2023/06/05 10:48:52;;;;;;;;;;;;;;;24.70;31.67;96692.81;4976746;28;20069;-75
2023/06/05 10:51:37;;;;;;;4.75;3.45;;;;;;;24.65;32.20;96694.41;4975664;28;19966;-76
2023/06/05 10:54:06;;;;;;;4.82;3.58;;;;;;;24.59;32.29;96700.81;4975815;28;20474;-75
2023/06/05 10:57:01;;;;;;;3.70;3.25;;;;;;;24.62;32.84;96694.97;4975599;28;20055;-76
2023/06/05 10:59:30;;;;;;;4.47;3.38;;;;;;;24.60;32.51;96697.09;4976057;28;20050;-75
2023/06/05 11:02:26;;;;;;;3.88;3.10;;;;;;;24.50;32.44;96691.78;4975770;28;20046;-75
2023/06/05 11:05:04;;;;;;;3.92;3.42;;;;;;;24.45;32.63;96683.75;4975323;28;20050;-75
2023/06/05 11:07:34;;;;;;;4.55;3.42;;;;;;;24.51;32.74;96682.72;4976027;28;20126;-75
2023/06/05 11:10:15;;;;;;;4.80;3.58;;;;;;;24.63;32.58;96696.56;4975586;28;20137;-77
2023/06/05 11:12:57;;;;;;;6.22;3.97;;;;;;;24.71;31.95;96691.72;4975320;28;20086;-76
2023/06/05 11:15:43;;;;;;;4.17;3.27;;;;;;;24.63;31.55;96699.22;4976028;28;20094;-75
2023/06/05 11:18:31;;;;;;;5.78;4.18;;;;;;;24.58;31.28;96693.91;4975024;28;20080;-74
2023/06/05 11:21:01;;;;;;;4.32;3.92;;;;;;;24.58;31.29;96682.44;4975683;28;20512;-76
2023/06/05 11:23:30;;;;;;;4.70;3.80;;;;;;;24.58;30.69;96682.44;4975282;28;20078;-76
2023/06/05 11:26:19;;;;;;;4.45;3.60;;;;;;;24.63;30.89;96680.56;4975163;28;20051;-77
2023/06/05 11:28:47;;;;;;;5.40;3.80;;;;;;;24.71;30.27;96676.56;4974843;28;20051;-76
2023/06/05 11:31:28;;;;;;;4.70;3.42;;;;;;;24.74;29.72;96672.53;4975133;28;20391;-75
2023/06/05 11:33:56;;;;;;;5.15;3.42;;;;;;;24.77;29.77;96659.44;4975060;28;20092;-74
2023/06/05 11:36:25;;;;;;;3.28;2.97;;;;;;;24.85;29.94;96660.75;4975008;28;20323;-75
2023/06/05 11:38:57;;;;;;;6.25;3.30;;;;;;;24.90;29.99;96658.06;4975656;28;20086;-75
2023/06/05 11:41:25;;;;;;;4.45;3.38;;;;;;;24.96;29.88;96653.53;4974823;28;20053;-75
2023/06/05 11:43:53;;;;;;;4.60;3.20;;;;;;;25.04;30.08;96648.41;4974949;28;20125;-75
2023/06/05 11:46:20;;;;;;;7.20;3.30;;;;;;;25.16;30.33;96657.97;4974634;28;20055;-75
2023/06/05 11:48:48;;;;;;;6.10;3.55;;;;;;;25.32;29.82;96653.38;4974651;28;20479;-76
2023/06/05 11:51:16;;;;;;;6.35;3.53;;;;;;;25.44;29.80;96657.31;4974953;28;20144;-76
2023/06/05 11:53:49;;;;;;;4.00;3.10;;;;;;;25.59;29.89;96658.31;4975571;28;20089;-76
2023/06/05 11:56:18;;;;;;;4.45;3.33;;;;;;;25.70;29.09;96662.53;4975210;28;20093;-76
2023/06/05 11:58:46;;;;;;;6.70;3.50;;;;;;;25.78;28.68;96663.78;4974765;28;20082;-76
2023/06/05 12:01:21;;;;;;;4.43;3.22;;;;;;;25.81;29.00;96668.59;4974452;28;20047;-76
2023/06/05 12:03:50;;;;;;;7.53;3.13;;;;;;;25.80;28.75;96662.47;4974826;28;20054;-75
2023/06/05 12:06:18;;;;;;;4.45;3.58;;;;;;;25.78;29.21;96659.28;4974518;28;20526;-75
2023/06/05 12:08:46;;;;;;;3.95;3.53;;;;;;;25.79;28.83;96658.19;4974628;28;20467;-75
2023/06/05 12:11:23;;;;;;;3.78;3.20;;;;;;;25.80;28.45;96654.44;4974909;28;20051;-75
2023/06/05 12:13:52;;;;;;;4.10;3.08;;;;;;;25.81;27.88;96650.69;4975782;28;20400;-75
2023/06/05 12:16:21;;;;;;;3.78;3.35;;;;;;;25.82;28.31;96652.28;4977428;28;20075;-76
2023/06/05 12:18:49;;;;;;;3.92;3.45;;;;;;;25.83;28.37;96640.53;4976402;28;20097;-75
2023/06/05 12:21:33;;;;;;;6.80;3.60;;;;;;;25.88;28.62;96634.38;4974643;28;20414;-75
2023/06/05 12:24:05;;;;;;;5.68;3.22;;;;;;;25.93;28.13;96630.84;4974034;28;20054;-75
2023/06/05 12:26:51;;;;;;;4.63;3.70;;;;;;;25.98;28.38;96634.28;4973910;28;20510;-75
2023/06/05 12:29:20;;;;;;;6.18;3.83;;;;;;;26.01;27.70;96622.25;4974026;28;20051;-75
2023/06/05 12:31:48;;;;;;;4.88;3.58;;;;;;;26.03;27.70;96628.09;4973823;28;20086;-75
2023/06/05 12:34:16;;;;;;;6.30;3.05;;;;;;;26.03;27.97;96625.44;4974005;28;20065;-75
2023/06/05 12:36:45;;;;;;;3.33;3.03;;;;;;;25.95;27.96;96616.13;4973779;28;20085;-75
2023/06/05 12:39:15;;;;;;;4.30;3.33;;;;;;;25.88;27.64;96621.78;4974158;28;20051;-75
2023/06/05 12:41:44;;;;;;;4.80;3.53;;;;;;;25.87;27.78;96622.06;4974041;28;20056;-75
2023/06/05 12:44:13;;;;;;;4.25;3.78;;;;;;;25.86;28.12;96612.44;4973742;28;20515;-76
2023/06/05 12:46:41;;;;;;;4.50;3.90;;;;;;;25.89;28.31;96611.94;4973508;28;20051;-76
2023/06/05 12:49:08;;;;;;;3.83;3.28;;;;;;;25.93;28.07;96612.16;4973441;28;20055;-76
2023/06/05 12:51:36;;;;;;;4.25;3.40;;;;;;;25.92;27.01;96618.59;4973577;28;20085;-75
2023/06/05 12:54:04;;;;;;;8.25;3.20;;;;;;;25.85;26.89;96603.63;4973720;28;20467;-75